Terminal Aerodrome Forecast
Issued by NWS Charleston, WV

Current Version | Previous Version | Graphics & Text | Print | Product List | Glossary Off
Versions: 1 2 3 4 5 6 7 8 9 10 11 12 13 14 15 16 17 18 19 20 21 22

000
FTUS41 KRLX 311138
TAFBKW
TAF
KBKW 311138Z 3112/0112 01002KT P6SM SCT250
     FM311600 01005KT P6SM SCT040
     FM312300 05002KT P6SM BKN040
     FM010600 14004KT P6SM BKN040=

USA.gov is the U.S. government's official web portal to all federal, state and local government web resources and services.